Aktuální počasí v Česku a ve světě - METAR

Seznam meteostanic umístěných nejčasteji na letišti v ČR a ve světě

Vyhledat místa podle abecedy:
A B C D E F G H I J K L M N O P Q R S T U V W X Y Z

Filtrovat:

ID stanice:
a/nebo
Název místa (fulltext):
 
Místo (ID)Naposledy načteno 
Pardubice (Pardubice) 04.12.2020 04:00 UTC Zobrazit data
Místo: Pardubice
Teplota: 3 °C (pocitová: -4.3 °C)
Vítr: 4 m/s z(e) 110°
Počasí: zataženo
Dohlednost: 10 km
Zákl. oblačnosti: 8/8 510 m
Vlhkost: 87%
Pec pod Sněžkou (Pec p.Snez) 04.12.2020 04:00 UTC Zobrazit data
Místo: Pec pod Sněžkou
Teplota: 0 °C (pocitová: -5.9 °C)
Vítr: 2 m/s z(e) 200°
Počasí: mlha
Dohlednost: 300 m
Zákl. oblačnosti: 8/8 30 m
Vlhkost: 100%
Plzeň město - Mikulka (Plzen/Miku) 04.12.2020 04:00 UTC Zobrazit data
Místo: Plzeň město - Mikulka
Teplota: -2 °C (pocitová: -10 °C)
Vítr: 3 m/s z(e) 340°
Počasí: zataženo
Dohlednost: 7 km
Zákl. oblačnosti: 8/8 270 m
Vlhkost: 93%
Polom (Polom) 04.12.2020 04:00 UTC Zobrazit data
Místo: Polom
Teplota: 1 °C (pocitová: -9.6 °C)
Vítr: 9 m/s z(e) 160°
Počasí: skoro zataženo
Dohlednost: 10 km
Zákl. oblačnosti: 2/8 180 m;7/8 3600 m
Vlhkost: 100%
Praha - Karlov (Praha/Kar) 04.12.2020 04:00 UTC Zobrazit data
Místo: Praha - Karlov
Teplota: 0 °C (pocitová: -4.3 °C)
Vítr: 1 m/s z(e) 0°
Počasí: zataženo
Dohlednost: 10 km
Zákl. oblačnosti: 8/8 450 m
Vlhkost: 93%
Praha - Kbely (Praha/Kbe) 04.12.2020 04:00 UTC Zobrazit data
Místo: Praha - Kbely
Teplota: 1 °C (pocitová: -7 °C)
Vítr: 4 m/s z(e) 110°
Počasí: zataženo
Dohlednost: 10 km
Zákl. oblačnosti: 8/8 360 m
Vlhkost: 93%
Praha - Libuš (Praha/Lib) 04.12.2020 04:00 UTC Zobrazit data
Místo: Praha - Libuš
Teplota: 0 °C (pocitová: -4.3 °C)
Vítr: 1 m/s z(e) 50°
Počasí: zataženo
Dohlednost: 9 km
Zákl. oblačnosti: 8/8 420 m
Vlhkost: 87%
Praha - Ruzyně (Praha/Ru) 04.12.2020 04:00 UTC Zobrazit data
Místo: Praha - Ruzyně
Teplota: 0 °C (pocitová: -5.9 °C)
Vítr: 2 m/s z(e) 110°
Počasí: zataženo
Dohlednost: 9 km
Zákl. oblačnosti: 8/8 300 m
Vlhkost: 87%
Přibyslav (Pribyslav) 04.12.2020 04:00 UTC Zobrazit data
Místo: Přibyslav
Teplota: 0 °C (pocitová: -11.9 °C)
Vítr: 11 m/s z(e) 130°
Počasí: mlha
Dohlednost: 300 m
Zákl. oblačnosti: 8/8 30 m
Vlhkost: 100%
Přimda (Primda) 04.12.2020 04:00 UTC Zobrazit data
Místo: Přimda
Teplota: -4 °C (pocitová: -14.8 °C)
Vítr: 5 m/s z(e) 100°
Počasí: sněží
Dohlednost: 900 m
Zákl. oblačnosti: 8/8 30 m
Vlhkost: 93%
Pago Pago (NSTU) 04.12.2020 03:50 UTC Zobrazit METAR
NSTU 040350Z 10007KT 12SM FEW021 30/25 A2979 RMK SLP088 T02970249
Palanga (EYPA) 04.12.2020 03:50 UTC Zobrazit METAR
EYPA 040350Z 14010KT 110V170 9999 OVC035 01/M01 Q1009
Palermo (LICJ) 04.12.2020 03:50 UTC Zobrazit METAR
LICJ 040350Z 27013KT 9999 FEW040 15/07 Q1006
Palma de Mallorca (LEPA) 04.12.2020 04:00 UTC Zobrazit METAR
LEPA 040400Z 25019KT 220V280 9999 FEW020 16/05 Q0997 NOSIG
Panama City (MPTO) 04.12.2020 04:00 UTC Zobrazit METAR
MPTO 040400Z VRB02KT 9999 FEW018 24/23 Q1011 NOSIG
Paramaribo (SMZO) 04.12.2020 00:00 UTC Zobrazit METAR
SMZO 040000Z 06004KT 9999 FEW010 SCT025 27/23 Q1011 NOSIG
Paris (LFPG) 04.12.2020 04:00 UTC Zobrazit METAR
LFPG 040400Z 22017KT 9999 BKN020 06/03 Q0980 NOSIG
Paro (VQPR) 04.12.2020 04:00 UTC Zobrazit METAR
VQPR 040400Z VRB01KT 9999 SCT030 BKN070 09/02 Q1022
Phnom Penh (VDPP) 04.12.2020 04:00 UTC Zobrazit METAR
VDPP 040400Z 05015KT 9999 FEW017 28/15 Q1012
Plovdiv (LBPD) 04.12.2020 04:00 UTC Zobrazit METAR
LBPD 040400Z AUTO VRB01KT 2000 BR BKN002 OVC004 M00/M01 Q1018 TEMPO 0800 FZFG
Pohnpei I (PTPN) 02.12.2020 00:50 UTC Zobrazit METAR
PTPN 020050Z 11007KT 15SM SCT018 BKN130 OVC300 31/26 A2982
Ponta Delgada (LPPD) 04.12.2020 04:00 UTC Zobrazit METAR
LPPD 040400Z 21003KT 170V290 9999 FEW016 BKN025 14/09 Q1029
Pori (EFPO) 04.12.2020 03:50 UTC Zobrazit METAR
EFPO 040350Z AUTO 11010KT 7000 -SHRA OVC008 00/M01 Q1013 RESHUP
Port Moresby (AYPY) 04.12.2020 01:00 UTC Zobrazit METAR
AYPY 040100Z 14011KT 9999 FEW025 SCT060 31/23 Q1008
Port of Spain (TTPP) 04.12.2020 04:00 UTC Zobrazit METAR
TTPP 040400Z 14003KT 9999 FEW016 SCT036 24/22 Q1013 NOSIG
Port Vila (NVVV) 04.12.2020 04:00 UTC Zobrazit METAR
NVVV 040400Z 08004KT 9999 -SHRA SCT020 BKN110 27/23 Q1010
Port-au-Prince (MTPP) 04.12.2020 03:59 UTC Zobrazit METAR
MTPP 040359Z AUTO 11005KT 8000 ////// 25/20 Q1016 A3000 NOSIG
Porto (LPPR) 04.12.2020 04:00 UTC Zobrazit METAR
LPPR 040400Z 33011KT 9999 FEW017 BKN046 09/06 Q1003
Poznan (EPPO) 04.12.2020 04:00 UTC Zobrazit METAR
EPPO 040400Z 12012KT 6000 FEW041 01/M00 Q0999
Prague (LKPR) 04.12.2020 04:00 UTC Zobrazit METAR
LKPR 040400Z 10004KT 070V130 9000 OVC010 M01/M02 Q0996 R24/29//95 NOSIG
Praia (GVFM) Zatím nenačteno  
Pyongyang (ZKPY) Zatím nenačteno  
Reklama


Další české internetové stránky (nejen) o počasí najdete v katalogu TOPlist - weby o počasí nebo vyhledejte na internetu, co jste tu na 🌞 Slunečnu ⛅ zatím nenašli:
⭐ Přidat Slunečno.cz do oblíbených | 🏠 Nastavit Slunečno.cz jako HOMEPAGE

⬆️ Posunout stránku nahoru ⬆️
Reklama